Irish Sea — WDB5555 — position and weather

sailwx.info

Track history (hours):
 
Tides and Currents Weather Stations Pressure Air Temp Water Temp Dewpoint Dewpoint Depression Visibility Wind Speed Wind Dir Waves Ship Positions

Irish Sea

Owner: Kirby Offshore Marine, LLC, Staten Island, NY. More information available from US FCC via Universal Licensing System and Coast Guard Vessel Documentation Center.

Last reported at 2016-Aug-30 22:34 UTC. Time now 2016-Aug-30 22:39 UTC.
Position N 39°35' W 075°35'.

Length 152 m; draft 5.6 m.

Type: . MMSI: 366910920.

Date/timePositionNaut miles runAvg speedWind from/ knotsBaromVisibWave heightAir tempDewpointWater temp
2016-Aug-30 22:34N 39°35' W 075°35'1 0.6
2016-Aug-30 21:33N 39°35' W 075°35'0 0.0
2016-Aug-30 20:33N 39°35' W 075°35'0 0.0
2016-Aug-30 19:27N 39°35' W 075°35'0 0.0
2016-Aug-30 18:33N 39°35' W 075°35'0 0.0
2016-Aug-30 17:33N 39°35' W 075°35'0 0.0
2016-Aug-30 16:33N 39°35' W 075°35'0 0.0
2016-Aug-30 15:33N 39°35' W 075°35'0 0.0
2016-Aug-30 14:29N 39°35' W 075°35'0 0.0
2016-Aug-30 13:32N 39°35' W 075°35'0 0.0
2016-Aug-30 12:33N 39°35' W 075°35'0 0.0
2016-Aug-30 11:33N 39°35' W 075°35'0 0.0
2016-Aug-30 10:33N 39°35' W 075°35'0 0.0
2016-Aug-30 09:34N 39°35' W 075°35'0 0.0
2016-Aug-30 08:33N 39°35' W 075°35'0 0.0
2016-Aug-30 07:34N 39°35' W 075°35'0 0.0
2016-Aug-30 06:33N 39°35' W 075°35'0 0.0
2016-Aug-30 05:34N 39°35' W 075°35'0 0.0
2016-Aug-30 04:33N 39°35' W 075°35'0 0.0
2016-Aug-30 03:33N 39°35' W 075°35'0 0.0
2016-Aug-30 02:33N 39°35' W 075°35'0 0.0
2016-Aug-30 01:34N 39°35' W 075°35'0 0.0
2016-Aug-30 00:33N 39°35' W 075°35'0 0.0
2016-Aug-29 23:33N 39°35' W 075°35'0 0.0
2016-Aug-29 22:33N 39°35' W 075°35'0 0.0
2016-Aug-29 21:34N 39°35' W 075°35'0 0.0
2016-Aug-29 20:34N 39°35' W 075°35'0 0.0
2016-Aug-29 19:34N 39°35' W 075°35'0 0.0
2016-Aug-29 18:34N 39°35' W 075°35'0 0.0
2016-Aug-29 17:34N 39°35' W 075°35'0 0.1
2016-Aug-29 16:33N 39°35' W 075°35'3 2.7
2016-Aug-29 15:34N 39°33' W 075°33'1 1.2
2016-Aug-29 14:33N 39°34' W 075°33'5 5.4
2016-Aug-29 13:33N 39°40' W 075°32'6 5.6
2016-Aug-29 12:33N 39°45' W 075°29'5 5.2
2016-Aug-29 11:34N 39°48' W 075°24'0 0.1
2016-Aug-29 10:34N 39°48' W 075°24'0 0.0
2016-Aug-29 09:33N 39°48' W 075°24'0 0.0
2016-Aug-29 08:33N 39°48' W 075°24'0 0.0
2016-Aug-29 07:33N 39°48' W 075°24'0 0.0
2016-Aug-29 06:33N 39°48' W 075°24'0 0.0
2016-Aug-29 05:33N 39°48' W 075°24'0 0.1
2016-Aug-29 04:34N 39°48' W 075°24'0 0.2
2016-Aug-29 03:33N 39°48' W 075°24'0 0.0
2016-Aug-29 02:33N 39°48' W 075°24'0 0.0
2016-Aug-29 01:33N 39°48' W 075°24'0 0.0
2016-Aug-29 00:34N 39°48' W 075°24'0 0.0
2016-Aug-28 23:33N 39°48' W 075°24'0 0.0
2016-Aug-28 22:33N 39°48' W 075°24'0 0.2
2016-Aug-28 21:33N 39°48' W 075°24'0 0.0
2016-Aug-28 20:34N 39°48' W 075°24'0 0.0
2016-Aug-28 19:34N 39°48' W 075°24'0 0.0
2016-Aug-28 18:33N 39°48' W 075°24'0 0.0
2016-Aug-28 17:34N 39°48' W 075°24'4 4.3
2016-Aug-28 16:34N 39°51' W 075°20'6 5.5
2016-Aug-28 15:31N 39°52' W 075°13'0 0.0
2016-Aug-28 14:31N 39°52' W 075°13'0 0.0
2016-Aug-28 13:31N 39°52' W 075°13'0 0.0
2016-Aug-28 12:31N 39°52' W 075°13'0 0.0
2016-Aug-28 11:31N 39°52' W 075°13'0 0.2
2016-Aug-28 10:25N 39°52' W 075°13'0 0.1
2016-Aug-28 09:31N 39°52' W 075°13'0 0.0
2016-Aug-28 08:31N 39°52' W 075°13'0 0.0
2016-Aug-28 07:31N 39°52' W 075°13'0 0.0
2016-Aug-28 06:31N 39°52' W 075°13'0 0.0
2016-Aug-28 05:31N 39°52' W 075°13'0 0.0
2016-Aug-28 04:31N 39°52' W 075°13'0 0.1
2016-Aug-28 03:07N 39°52' W 075°13'0 0.0
2016-Aug-28 02:33N 39°52' W 075°13'2 1.8
2016-Aug-28 01:33N 39°53' W 075°11'0 0.0
2016-Aug-28 00:33N 39°53' W 075°11'0 0.0
2016-Aug-27 23:27N 39°53' W 075°11'0 0.0
2016-Aug-27 22:29N 39°53' W 075°11'0 0.0
2016-Aug-27 21:33N 39°53' W 075°11'0 0.1
2016-Aug-27 20:33N 39°53' W 075°11'0 0.0
2016-Aug-27 19:33N 39°53' W 075°11'0 0.0
2016-Aug-27 18:33N 39°53' W 075°11'0 0.0
2016-Aug-27 17:33N 39°53' W 075°11'0 0.0
2016-Aug-27 16:33N 39°53' W 075°11'0 0.0
2016-Aug-27 15:33N 39°53' W 075°11'0 0.0
2016-Aug-27 14:33N 39°53' W 075°11'0 0.0
2016-Aug-27 13:33N 39°53' W 075°11'0 0.0
2016-Aug-27 12:33N 39°53' W 075°11'0 0.0
2016-Aug-27 11:33N 39°53' W 075°11'0 0.0
2016-Aug-27 10:33N 39°53' W 075°11'0 0.0
2016-Aug-27 09:33N 39°53' W 075°11'0 0.0
2016-Aug-27 08:30N 39°53' W 075°11'0 0.0
2016-Aug-27 07:33N 39°53' W 075°11'0 0.0
2016-Aug-27 06:33N 39°53' W 075°11'0 0.0
2016-Aug-27 04:33N 39°53' W 075°11'0 0.0
2016-Aug-27 03:33N 39°53' W 075°11'0 0.0
2016-Aug-27 02:33N 39°53' W 075°11'0 0.0
2016-Aug-27 01:32N 39°53' W 075°11'0 0.0
2016-Aug-27 00:29N 39°53' W 075°11'0 0.0
2016-Aug-26 23:32N 39°53' W 075°11'0 0.0
2016-Aug-26 22:29N 39°53' W 075°11'0 0.0
2016-Aug-26 21:32N 39°53' W 075°11'0 0.0
2016-Aug-26 20:32N 39°53' W 075°11'0 0.0
2016-Aug-26 19:29N 39°53' W 075°11'0 0.0
2016-Aug-26 18:32N 39°53' W 075°11'0 0.0
2016-Aug-26 17:29N 39°53' W 075°11'0 0.0
2016-Aug-26 16:32N 39°53' W 075°11'0 0.0
2016-Aug-26 15:32N 39°53' W 075°11'0 0.0
2016-Aug-26 14:32N 39°53' W 075°11'0 0.0
2016-Aug-26 13:32N 39°53' W 075°11'0 0.0
2016-Aug-26 12:32N 39°53' W 075°11'0 0.0
2016-Aug-26 11:29N 39°53' W 075°11'0 0.0
2016-Aug-26 10:32N 39°53' W 075°11'0 0.0
2016-Aug-26 09:29N 39°53' W 075°11'0 0.0
2016-Aug-26 08:32N 39°53' W 075°11'0 0.0
2016-Aug-26 07:32N 39°53' W 075°11'0 0.0
2016-Aug-26 06:32N 39°53' W 075°11'0 0.0
2016-Aug-26 04:32N 39°53' W 075°11'0 0.0
2016-Aug-26 03:32N 39°53' W 075°11'0 0.0
2016-Aug-26 02:32N 39°53' W 075°11'1 0.6
2016-Aug-26 01:32N 39°54' W 075°12'0 0.0
2016-Aug-26 00:32N 39°54' W 075°12'0 0.0
2016-Aug-25 23:32N 39°54' W 075°12'0 0.0
2016-Aug-25 22:32N 39°54' W 075°12'1 0.7
2016-Aug-25 21:33N 39°53' W 075°11'0 0.0
2016-Aug-25 20:33N 39°53' W 075°11'0 0.0
2016-Aug-25 19:33N 39°53' W 075°11'0 0.0
2016-Aug-25 18:33N 39°53' W 075°11'0 0.0
2016-Aug-25 17:33N 39°53' W 075°11'0 0.0
2016-Aug-25 16:27N 39°53' W 075°11'0 0.0
2016-Aug-25 15:33N 39°53' W 075°11'0 0.0
2016-Aug-25 14:33N 39°53' W 075°11'0 0.0
2016-Aug-25 13:33N 39°53' W 075°11'0 0.0
2016-Aug-25 12:33N 39°53' W 075°11'0 0.0
2016-Aug-25 11:33N 39°53' W 075°11'0 0.0
2016-Aug-25 10:33N 39°53' W 075°11'0 0.0
2016-Aug-25 09:33N 39°53' W 075°11'0 0.0
2016-Aug-25 08:33N 39°53' W 075°11'0 0.0
2016-Aug-25 07:33N 39°53' W 075°11'2 1.7
2016-Aug-25 06:33N 39°52' W 075°13'0 0.0
2016-Aug-25 04:33N 39°52' W 075°13'0 0.0
2016-Aug-25 03:33N 39°52' W 075°13'2 2.2
2016-Aug-25 02:33N 39°51' W 075°15'7 7.3
2016-Aug-25 01:33N 39°49' W 075°24'7 6.6
2016-Aug-25 00:33N 39°44' W 075°30'8 8.4
2016-Aug-24 23:33N 39°36' W 075°34'9 8.8
2016-Aug-24 22:33N 39°27' W 075°34'10 9.6
2016-Aug-24 21:33N 39°20' W 075°25'10 9.8
2016-Aug-24 20:33N 39°13' W 075°17'12 9.4
2016-Aug-24 19:17N 39°02' W 075°09'  
Track history (hours):
 
Tides and Currents Weather Stations Pressure Air Temp Water Temp Dewpoint Dewpoint Depression Visibility Wind Speed Wind Dir Waves Ship Positions

Irish Sea

Owner: Kirby Offshore Marine, LLC, Staten Island, NY. More information available from US FCC via Universal Licensing System and Coast Guard Vessel Documentation Center.

Last reported at 2016-Aug-30 22:34 UTC. Time now 2016-Aug-30 22:39 UTC.
Position N 39°35' W 075°35'.

Length 152 m; draft 5.6 m.

Type: . MMSI: 366910920.

Date/timePositionNaut miles runAvg speedWind from/ knotsBaromVisibWave heightAir tempDewpointWater temp
2016-Aug-30 22:34N 39°35' W 075°35'1 0.6
2016-Aug-30 21:33N 39°35' W 075°35'0 0.0
2016-Aug-30 20:33N 39°35' W 075°35'0 0.0
2016-Aug-30 19:27N 39°35' W 075°35'0 0.0
2016-Aug-30 18:33N 39°35' W 075°35'0 0.0
2016-Aug-30 17:33N 39°35' W 075°35'0 0.0
2016-Aug-30 16:33N 39°35' W 075°35'0 0.0
2016-Aug-30 15:33N 39°35' W 075°35'0 0.0
2016-Aug-30 14:29N 39°35' W 075°35'0 0.0
2016-Aug-30 13:32N 39°35' W 075°35'0 0.0
2016-Aug-30 12:33N 39°35' W 075°35'0 0.0
2016-Aug-30 11:33N 39°35' W 075°35'0 0.0
2016-Aug-30 10:33N 39°35' W 075°35'0 0.0
2016-Aug-30 09:34N 39°35' W 075°35'0 0.0
2016-Aug-30 08:33N 39°35' W 075°35'0 0.0
2016-Aug-30 07:34N 39°35' W 075°35'0 0.0
2016-Aug-30 06:33N 39°35' W 075°35'0 0.0
2016-Aug-30 05:34N 39°35' W 075°35'0 0.0
2016-Aug-30 04:33N 39°35' W 075°35'0 0.0
2016-Aug-30 03:33N 39°35' W 075°35'0 0.0
2016-Aug-30 02:33N 39°35' W 075°35'0 0.0
2016-Aug-30 01:34N 39°35' W 075°35'0 0.0
2016-Aug-30 00:33N 39°35' W 075°35'0 0.0
2016-Aug-29 23:33N 39°35' W 075°35'0 0.0
2016-Aug-29 22:33N 39°35' W 075°35'0 0.0
2016-Aug-29 21:34N 39°35' W 075°35'0 0.0
2016-Aug-29 20:34N 39°35' W 075°35'0 0.0
2016-Aug-29 19:34N 39°35' W 075°35'0 0.0
2016-Aug-29 18:34N 39°35' W 075°35'0 0.0
2016-Aug-29 17:34N 39°35' W 075°35'0 0.1
2016-Aug-29 16:33N 39°35' W 075°35'3 2.7
2016-Aug-29 15:34N 39°33' W 075°33'1 1.2
2016-Aug-29 14:33N 39°34' W 075°33'5 5.4
2016-Aug-29 13:33N 39°40' W 075°32'6 5.6
2016-Aug-29 12:33N 39°45' W 075°29'5 5.2
2016-Aug-29 11:34N 39°48' W 075°24'0 0.1
2016-Aug-29 10:34N 39°48' W 075°24'0 0.0
2016-Aug-29 09:33N 39°48' W 075°24'0 0.0
2016-Aug-29 08:33N 39°48' W 075°24'0 0.0
2016-Aug-29 07:33N 39°48' W 075°24'0 0.0
2016-Aug-29 06:33N 39°48' W 075°24'0 0.0
2016-Aug-29 05:33N 39°48' W 075°24'0 0.1
2016-Aug-29 04:34N 39°48' W 075°24'0 0.2
2016-Aug-29 03:33N 39°48' W 075°24'0 0.0
2016-Aug-29 02:33N 39°48' W 075°24'0 0.0
2016-Aug-29 01:33N 39°48' W 075°24'0 0.0
2016-Aug-29 00:34N 39°48' W 075°24'0 0.0
2016-Aug-28 23:33N 39°48' W 075°24'0 0.0
2016-Aug-28 22:33N 39°48' W 075°24'0 0.2
2016-Aug-28 21:33N 39°48' W 075°24'0 0.0
2016-Aug-28 20:34N 39°48' W 075°24'0 0.0
2016-Aug-28 19:34N 39°48' W 075°24'0 0.0
2016-Aug-28 18:33N 39°48' W 075°24'0 0.0
2016-Aug-28 17:34N 39°48' W 075°24'4 4.3
2016-Aug-28 16:34N 39°51' W 075°20'6 5.5
2016-Aug-28 15:31N 39°52' W 075°13'0 0.0
2016-Aug-28 14:31N 39°52' W 075°13'0 0.0
2016-Aug-28 13:31N 39°52' W 075°13'0 0.0
2016-Aug-28 12:31N 39°52' W 075°13'0 0.0
2016-Aug-28 11:31N 39°52' W 075°13'0 0.2
2016-Aug-28 10:25N 39°52' W 075°13'0 0.1
2016-Aug-28 09:31N 39°52' W 075°13'0 0.0
2016-Aug-28 08:31N 39°52' W 075°13'0 0.0
2016-Aug-28 07:31N 39°52' W 075°13'0 0.0
2016-Aug-28 06:31N 39°52' W 075°13'0 0.0
2016-Aug-28 05:31N 39°52' W 075°13'0 0.0
2016-Aug-28 04:31N 39°52' W 075°13'0 0.1
2016-Aug-28 03:07N 39°52' W 075°13'0 0.0
2016-Aug-28 02:33N 39°52' W 075°13'2 1.8
2016-Aug-28 01:33N 39°53' W 075°11'0 0.0
2016-Aug-28 00:33N 39°53' W 075°11'0 0.0
2016-Aug-27 23:27N 39°53' W 075°11'0 0.0
2016-Aug-27 22:29N 39°53' W 075°11'0 0.0
2016-Aug-27 21:33N 39°53' W 075°11'0 0.1
2016-Aug-27 20:33N 39°53' W 075°11'0 0.0
2016-Aug-27 19:33N 39°53' W 075°11'0 0.0
2016-Aug-27 18:33N 39°53' W 075°11'0 0.0
2016-Aug-27 17:33N 39°53' W 075°11'0 0.0
2016-Aug-27 16:33N 39°53' W 075°11'0 0.0
2016-Aug-27 15:33N 39°53' W 075°11'0 0.0
2016-Aug-27 14:33N 39°53' W 075°11'0 0.0
2016-Aug-27 13:33N 39°53' W 075°11'0 0.0
2016-Aug-27 12:33N 39°53' W 075°11'0 0.0
2016-Aug-27 11:33N 39°53' W 075°11'0 0.0
2016-Aug-27 10:33N 39°53' W 075°11'0 0.0
2016-Aug-27 09:33N 39°53' W 075°11'0 0.0
2016-Aug-27 08:30N 39°53' W 075°11'0 0.0
2016-Aug-27 07:33N 39°53' W 075°11'0 0.0
2016-Aug-27 06:33N 39°53' W 075°11'0 0.0
2016-Aug-27 04:33N 39°53' W 075°11'0 0.0
2016-Aug-27 03:33N 39°53' W 075°11'0 0.0
2016-Aug-27 02:33N 39°53' W 075°11'0 0.0
2016-Aug-27 01:32N 39°53' W 075°11'0 0.0
2016-Aug-27 00:29N 39°53' W 075°11'0 0.0
2016-Aug-26 23:32N 39°53' W 075°11'0 0.0
2016-Aug-26 22:29N 39°53' W 075°11'0 0.0
2016-Aug-26 21:32N 39°53' W 075°11'0 0.0
2016-Aug-26 20:32N 39°53' W 075°11'0 0.0
2016-Aug-26 19:29N 39°53' W 075°11'0 0.0
2016-Aug-26 18:32N 39°53' W 075°11'0 0.0
2016-Aug-26 17:29N 39°53' W 075°11'0 0.0
2016-Aug-26 16:32N 39°53' W 075°11'0 0.0
2016-Aug-26 15:32N 39°53' W 075°11'0 0.0
2016-Aug-26 14:32N 39°53' W 075°11'0 0.0
2016-Aug-26 13:32N 39°53' W 075°11'0 0.0
2016-Aug-26 12:32N 39°53' W 075°11'0 0.0
2016-Aug-26 11:29N 39°53' W 075°11'0 0.0
2016-Aug-26 10:32N 39°53' W 075°11'0 0.0
2016-Aug-26 09:29N 39°53' W 075°11'0 0.0
2016-Aug-26 08:32N 39°53' W 075°11'0 0.0
2016-Aug-26 07:32N 39°53' W 075°11'0 0.0
2016-Aug-26 06:32N 39°53' W 075°11'0 0.0
2016-Aug-26 04:32N 39°53' W 075°11'0 0.0
2016-Aug-26 03:32N 39°53' W 075°11'0 0.0
2016-Aug-26 02:32N 39°53' W 075°11'1 0.6
2016-Aug-26 01:32N 39°54' W 075°12'0 0.0
2016-Aug-26 00:32N 39°54' W 075°12'0 0.0
2016-Aug-25 23:32N 39°54' W 075°12'0 0.0
2016-Aug-25 22:32N 39°54' W 075°12'1 0.7
2016-Aug-25 21:33N 39°53' W 075°11'0 0.0
2016-Aug-25 20:33N 39°53' W 075°11'0 0.0
2016-Aug-25 19:33N 39°53' W 075°11'0 0.0
2016-Aug-25 18:33N 39°53' W 075°11'0 0.0
2016-Aug-25 17:33N 39°53' W 075°11'0 0.0
2016-Aug-25 16:27N 39°53' W 075°11'0 0.0
2016-Aug-25 15:33N 39°53' W 075°11'0 0.0
2016-Aug-25 14:33N 39°53' W 075°11'0 0.0
2016-Aug-25 13:33N 39°53' W 075°11'0 0.0
2016-Aug-25 12:33N 39°53' W 075°11'0 0.0
2016-Aug-25 11:33N 39°53' W 075°11'0 0.0
2016-Aug-25 10:33N 39°53' W 075°11'0 0.0
2016-Aug-25 09:33N 39°53' W 075°11'0 0.0
2016-Aug-25 08:33N 39°53' W 075°11'0 0.0
2016-Aug-25 07:33N 39°53' W 075°11'2 1.7
2016-Aug-25 06:33N 39°52' W 075°13'0 0.0
2016-Aug-25 04:33N 39°52' W 075°13'0 0.0
2016-Aug-25 03:33N 39°52' W 075°13'2 2.2
2016-Aug-25 02:33N 39°51' W 075°15'7 7.3
2016-Aug-25 01:33N 39°49' W 075°24'7 6.6
2016-Aug-25 00:33N 39°44' W 075°30'8 8.4
2016-Aug-24 23:33N 39°36' W 075°34'9 8.8
2016-Aug-24 22:33N 39°27' W 075°34'10 9.6
2016-Aug-24 21:33N 39°20' W 075°25'10 9.8
2016-Aug-24 20:33N 39°13' W 075°17'12 9.4
2016-Aug-24 19:17N 39°02' W 075°09'  

Dump ship's entire track history